Terminal Aerodrome Forecast
Issued by NWS Sioux Falls, SD

Home | Current Version | Previous Version | Graphics & Text | Print | Product List | Glossary On
Versions: 1 2 3 4 5 6 7 8 9 10 11 12 13 14 15 16 17
000
FTUS43 KFSD 181138
TAFSUX
TAF
KSUX 181138Z 1812/1912 13007KT P6SM BKN250
     FM181500 16011KT P6SM SCT110 BKN200
     FM190000 13009KT P6SM SCT060 BKN150
     FM190200 11007KT P6SM SCT110
     FM190400 10006KT P6SM SCT035 BKN090=

USA.gov is the U.S. government's official web portal to all federal, state and local government web resources and services.